Paradise, MI (49768)

3:21 PM EST on December 09, 2016 (GMT -0500)
Whitefish Bay, Paradise, MI. | | Change Station
Active Advisory: Lake Effect Snow Advisory

Elev 591 ft 46.58 °N, 85.04 °W | Updated 36 seconds ago

Snow
Snow
23.5 °F
Feels Like 24 °F
N
0.0
Wind Variable Wind from NNW
Gusts 0.0 mph

Today
High -- | Low -- °F
--% Chance of Precip.
Yesterday
High -- | Low -- °F
Precip. -- in
Pressure 30.30 in
Visibility 7.0 miles
Clouds Mostly Cloudy 1900 ft
Overcast 2400 ft
Windchill 24 °F
Dew Point 14 °F
Humidity 67%
Rainfall 0.00 in
Snow Depth Not available.
8:13 AM 4:52 PM
Waxing Gibbous, 77% visible
METAR KERY 092015Z AUTO 01005KT 7SM BKN019 OVC024 M06/M09 A3030 RMK AO2 T10571090
Pressure 30.30 in
Visibility 7.0 miles
Clouds Mostly Cloudy 1900 ft
Overcast 2400 ft
Windchill 24 °F
Dew Point 14 °F
Humidity 67%
Rainfall 0.00 in
Snow Depth Not available.
8:13 AM 4:52 PM
Waxing Gibbous, 77% visible
METAR KERY 092015Z AUTO 01005KT 7SM BKN019 OVC024 M06/M09 A3030 RMK AO2 T10571090

10-Day Weather Forecast

Almanac

Astronomy

Dec. 09, 2016 Rise Set
Actual Time
Civil Twilight
Nautical Twilight
Astronomical Twilight
Moon
Length of Visible Light
Length of Day
Tomorrow will be .
, % of the Moon is Illuminated

Today's Extremes

State Highs State Lows

Community

WunderPhotos

Upload Photos

1,956,517 photos uploaded!

WunderBlog® & News

Nearby

Air Quality

  Air Quality AQ Index Pollutant
Not available.

Snow Depth

Station Depth Elevation

Earthquake Activity

City Distance Mag. Time & Date
Minimum magnitude displayed is 2.5.

Coastal Water Temperatures

Place Temperature

Stations

Nearby Weather Stations

Station Location Temp. Windchill Dew Point Humidity Wind Precip. Elev Updated Type
                   

Watches & Warnings

Lake Effect Snow Advisory
Issued: 2:15 PM EST Dec. 9, 2016 – National Weather Service

... Lake effect Snow Advisory now in effect until noon EST
Saturday...

* periods of lake effect snow showers will persist through
Saturday morning.

* The heaviest snowfall rates will occur across northwest sections
of Chippewa County... especially near Whitefish Point and
Paradise.

* Where snow showers persist... additional snow accumulation of 2
to 6 inches is expected... with locally higher amounts possible.

* Look for greatly reduced visibilities at times.

* Plan on difficult driving conditions.

Precautionary/preparedness actions...

A lake effect Snow Advisory Means Lake-effect snow is forecast
that will make travel difficult in some areas. Use caution when
traveling. For the latest Road conditions... go to the mdot
website at Michigan.Gov.